Ana Sayfa
METAR-TAF:

METAR-TAF

Havaalanları :

Harbin Taiping Uluslararası Havalimanı

Harbin, Çin

Enlem: 45-45N, Boylam: 126-46E, yükseklik: 143 m

Güncel hava durumu gözlemi

Rapor saat 00:00 UTC de 16 dakika önce yapıldı.
Rüzgar güney/güneybatıdan 10 kt
Sıcaklık -11°C
Nem 66%
Basınç 1022 hPa
Görüş mesafesi 10 km veya daha fazla
1500 m altında bulut yok ve kümülonimbus yok

METAR: ZYHB 210000Z 21005MPS CAVOK M11/M16 Q1022 NOSIG

Saat: 08:16 (00:16 UTC)

Tahmin

Rapor saat 19:11 UTC de 5 saat ve 5 dakika önce yapıldı.
Ayın 21'si saat 00 UTC'den ayın 21'si saat 24 UTC'ye kadar geçerli Tahmin
Rüzgar güneybatıdan 8 kt
Görüş mesafesi: 6000 m
3000 ft yükseklikte parçalı bulutlu

TAF: ZYHB 201911Z 2100/2124 22004MPS 6000 SCT030 TXM02/06Z TNM15/21Z

4.000'den fazla havaalanı için hava durumu gözlemleri ve tahminleri (METAR ve TAF raporları).

Kullanılabilir istasyonlar harita üzerinde sarı ve kırmızı noktalarla gösterilir.

İstasyonun adını görmek için fareyi noktanın üzerinde gezdirin.

Sonrasında hava gözlem ve tahminlerini görmek için tıklayın.

Haritayı değiştirmek için: yaklaştırmak için siyah artı işaretli yeşil düğmeye ve uzaklaştırmak için de eksi işaretli düğmeye hızla tıklayın; bitişik haritalar için yeşil okları kullanın.


METAR-TAF: